createdAt,value
2022-10-04T00:01:05.758Z,12.09
2022-10-04T00:03:38.475Z,12.27
2022-10-04T00:06:15.211Z,12.24
2022-10-04T00:08:51.241Z,12.24
2022-10-04T00:11:24.893Z,12.25
2022-10-04T00:14:01.497Z,12.20
2022-10-04T00:16:33.054Z,12.13
2022-10-04T00:19:22.299Z,12.18
2022-10-04T00:21:52.576Z,12.16
2022-10-04T00:24:27.886Z,12.03
2022-10-04T00:27:11.998Z,12.09
2022-10-04T00:29:44.815Z,12.02
2022-10-04T00:32:11.969Z,12.04
2022-10-04T00:34:48.276Z,11.96
2022-10-04T00:37:18.482Z,11.95
2022-10-04T00:40:11.027Z,11.95
2022-10-04T00:42:56.603Z,11.92
2022-10-04T00:45:34.290Z,11.88
2022-10-04T00:48:04.888Z,11.86
2022-10-04T00:50:52.492Z,11.82
2022-10-04T00:53:30.347Z,11.78
2022-10-04T00:56:01.687Z,11.79
2022-10-04T00:58:36.518Z,11.73
2022-10-04T01:01:04.772Z,11.78
2022-10-04T01:03:43.078Z,11.82
2022-10-04T01:06:11.813Z,11.73
2022-10-04T01:08:46.678Z,11.74
2022-10-04T01:11:19.509Z,11.77
2022-10-04T01:14:04.707Z,11.69
2022-10-04T01:16:37.239Z,11.69
2022-10-04T01:19:22.500Z,11.87
2022-10-04T01:22:00.201Z,11.84
2022-10-04T01:24:34.973Z,11.78
2022-10-04T01:27:02.697Z,11.76
2022-10-04T01:29:31.902Z,11.75
2022-10-04T01:32:01.050Z,11.75
2022-10-04T01:34:30.644Z,11.67
2022-10-04T01:37:01.400Z,11.61
2022-10-04T01:39:29.102Z,11.58
2022-10-04T01:42:14.544Z,11.55
2022-10-04T01:44:48.724Z,11.46
2022-10-04T01:47:41.954Z,11.58
2022-10-04T01:50:23.249Z,11.57
2022-10-04T01:52:56.172Z,11.51
2022-10-04T01:55:30.794Z,11.60
2022-10-04T01:58:13.479Z,11.57
2022-10-04T02:00:55.755Z,11.63
2022-10-04T02:03:36.060Z,11.62
2022-10-04T02:06:07.497Z,11.63
2022-10-04T02:08:40.222Z,11.62
2022-10-04T02:11:07.664Z,11.54
2022-10-04T02:13:40.292Z,11.59
2022-10-04T02:16:12.088Z,11.61
2022-10-04T02:18:43.701Z,11.65
2022-10-04T02:21:12.212Z,11.64
2022-10-04T02:23:41.229Z,11.71
2022-10-04T02:26:10.261Z,11.63
2022-10-04T02:28:38.774Z,11.61
2022-10-04T02:31:26.701Z,11.57
2022-10-04T02:33:58.655Z,11.53
2022-10-04T02:36:29.049Z,11.59
2022-10-04T02:39:22.483Z,11.54
2022-10-04T02:41:55.950Z,11.48
2022-10-04T02:44:30.571Z,11.47
2022-10-04T02:47:14.286Z,11.37
2022-10-04T02:49:52.775Z,11.35
2022-10-04T02:52:42.500Z,11.40
2022-10-04T02:55:39.327Z,11.43
2022-10-04T02:58:11.030Z,11.38
2022-10-04T03:00:50.419Z,11.44
2022-10-04T03:03:25.851Z,11.48
2022-10-04T03:06:13.188Z,11.46
2022-10-04T03:08:43.461Z,11.41
2022-10-04T03:11:14.113Z,11.44
2022-10-04T03:13:44.665Z,11.40
2022-10-04T03:16:12.715Z,11.46
2022-10-04T03:18:40.515Z,11.51
2022-10-04T03:21:11.509Z,11.49
2022-10-04T03:23:40.001Z,11.42
2022-10-04T03:26:13.110Z,11.38
2022-10-04T03:28:43.576Z,11.26
2022-10-04T03:31:14.158Z,11.26
2022-10-04T03:33:43.609Z,11.27
2022-10-04T03:36:16.915Z,11.23
2022-10-04T03:38:47.210Z,11.26
2022-10-04T03:41:17.049Z,11.29
2022-10-04T03:43:52.472Z,11.30
2022-10-04T03:46:23.479Z,11.26
2022-10-04T03:48:53.643Z,11.23
2022-10-04T03:51:24.075Z,11.36
2022-10-04T03:54:02.811Z,11.35
2022-10-04T03:56:36.909Z,11.26
2022-10-04T03:59:08.160Z,11.18
2022-10-04T04:01:38.900Z,11.15
2022-10-04T04:04:06.089Z,11.16
2022-10-04T04:06:51.816Z,11.21
2022-10-04T04:09:34.310Z,11.17
2022-10-04T04:12:11.994Z,11.13
2022-10-04T04:14:41.221Z,11.17
2022-10-04T04:17:27.354Z,11.10
2022-10-04T04:20:02.257Z,11.00
2022-10-04T04:22:32.757Z,11.04
2022-10-04T04:25:03.142Z,11.05
2022-10-04T04:27:36.897Z,11.00
2022-10-04T04:30:06.415Z,10.96
2022-10-04T04:32:48.753Z,11.02
2022-10-04T04:35:37.049Z,10.99
2022-10-04T04:38:06.114Z,11.10
2022-10-04T04:40:34.190Z,11.15
2022-10-04T04:43:02.961Z,11.29
2022-10-04T04:45:32.616Z,11.31
2022-10-04T04:48:04.577Z,11.38
2022-10-04T04:50:35.899Z,11.41
2022-10-04T04:53:23.793Z,11.40
2022-10-04T04:56:03.764Z,11.47
2022-10-04T04:58:41.816Z,11.54
2022-10-04T05:01:31.410Z,11.64
2022-10-04T05:04:14.808Z,11.72
2022-10-04T05:07:01.211Z,11.80
2022-10-04T05:09:34.387Z,11.74
2022-10-04T05:12:18.064Z,11.81
2022-10-04T05:14:49.769Z,11.83
2022-10-04T05:17:35.023Z,11.90
2022-10-04T05:20:04.751Z,11.95
2022-10-04T05:22:33.126Z,12.01
2022-10-04T05:25:05.649Z,12.10
2022-10-04T05:27:35.926Z,12.05
2022-10-04T05:30:10.794Z,11.93
2022-10-04T05:32:58.282Z,11.95
2022-10-04T05:35:28.655Z,12.01
2022-10-04T05:38:19.902Z,12.12
2022-10-04T05:41:05.870Z,12.13
2022-10-04T05:43:38.048Z,12.11
2022-10-04T05:46:25.881Z,12.12
2022-10-04T05:48:55.530Z,12.09
2022-10-04T05:51:27.038Z,12.16
2022-10-04T05:53:59.789Z,12.14
2022-10-04T05:56:42.186Z,12.16
2022-10-04T05:59:38.442Z,12.18
2022-10-04T06:02:44.453Z,12.07
2022-10-04T06:05:28.790Z,12.27
2022-10-04T06:08:25.723Z,12.37
2022-10-04T06:11:18.589Z,12.44
2022-10-04T06:13:54.231Z,12.52
2022-10-04T06:16:36.680Z,12.54
2022-10-04T06:19:29.248Z,12.58
2022-10-04T06:22:08.614Z,12.67
2022-10-04T06:24:40.322Z,12.68
2022-10-04T06:27:31.627Z,12.81
2022-10-04T06:30:06.568Z,12.85
2022-10-04T06:33:14.746Z,12.94
2022-10-04T06:35:53.791Z,13.03
2022-10-04T06:38:35.320Z,13.12
2022-10-04T06:41:08.406Z,13.20
2022-10-04T06:44:00.378Z,13.28
2022-10-04T06:46:59.896Z,13.36
2022-10-04T06:49:55.326Z,13.39
2022-10-04T06:53:00.687Z,13.35
2022-10-04T06:55:40.359Z,13.52
2022-10-04T06:58:35.653Z,13.56
2022-10-04T07:01:05.968Z,13.69
2022-10-04T07:03:53.318Z,13.83
2022-10-04T07:06:31.719Z,13.90
2022-10-04T07:09:06.888Z,13.81
2022-10-04T07:11:56.860Z,13.78
2022-10-04T07:14:43.947Z,13.81
2022-10-04T07:17:21.268Z,13.88
2022-10-04T07:19:52.391Z,13.89
2022-10-04T07:22:27.022Z,14.04
2022-10-04T07:25:12.924Z,14.17
2022-10-04T07:28:14.386Z,14.27
2022-10-04T07:31:17.395Z,14.42
2022-10-04T07:33:50.246Z,14.56
2022-10-04T07:36:25.673Z,14.72
2022-10-04T07:39:10.693Z,14.79
2022-10-04T07:41:50.435Z,14.87
2022-10-04T07:44:34.809Z,14.91
2022-10-04T07:47:27.460Z,14.98
2022-10-04T07:49:55.642Z,15.10
2022-10-04T07:52:29.988Z,15.12
2022-10-04T07:54:57.714Z,15.27
2022-10-04T07:57:33.967Z,15.18
2022-10-04T08:00:19.354Z,15.13
2022-10-04T08:03:11.104Z,15.20
2022-10-04T08:05:43.175Z,15.06
2022-10-04T08:08:29.817Z,15.01
2022-10-04T08:11:33.864Z,15.23
2022-10-04T08:14:05.070Z,15.16
2022-10-04T08:16:37.517Z,15.10
2022-10-04T08:19:26.173Z,15.19
2022-10-04T08:22:18.499Z,15.18
2022-10-04T08:25:21.479Z,15.41
2022-10-04T08:28:18.277Z,15.42
2022-10-04T08:31:26.727Z,15.39
2022-10-04T08:34:12.049Z,15.45
2022-10-04T08:37:16.925Z,15.29
2022-10-04T08:40:14.985Z,15.43
2022-10-04T08:43:04.911Z,15.52
2022-10-04T08:45:59.238Z,15.65
2022-10-04T08:48:59.713Z,15.80
2022-10-04T08:52:05.941Z,16.03
2022-10-04T08:54:35.638Z,16.27
2022-10-04T08:57:16.085Z,16.39
2022-10-04T09:00:20.903Z,16.62
2022-10-04T09:03:05.223Z,16.68
2022-10-04T09:05:56.433Z,16.77
2022-10-04T09:08:30.200Z,16.96
2022-10-04T09:11:22.836Z,16.85
2022-10-04T09:14:18.896Z,16.82
2022-10-04T09:16:49.033Z,16.68
2022-10-04T09:19:46.721Z,16.54
2022-10-04T09:22:39.348Z,16.75
2022-10-04T09:25:35.094Z,16.51
2022-10-04T09:28:10.206Z,16.26
2022-10-04T09:30:53.281Z,16.09
2022-10-04T09:33:46.694Z,16.16
2022-10-04T09:37:03.888Z,16.18
2022-10-04T09:40:06.756Z,16.21
2022-10-04T09:42:45.938Z,16.30
2022-10-04T09:45:35.186Z,16.50
2022-10-04T09:48:08.579Z,16.57
2022-10-04T09:51:13.602Z,16.74
2022-10-04T09:53:55.133Z,16.96
2022-10-04T09:56:45.725Z,17.06
2022-10-04T09:59:27.008Z,17.12
2022-10-04T10:02:01.946Z,16.97
2022-10-04T10:05:07.336Z,17.13
2022-10-04T10:07:55.071Z,16.98
2022-10-04T10:10:59.240Z,16.87
2022-10-04T10:14:02.854Z,16.95
2022-10-04T10:16:53.553Z,17.15
2022-10-04T10:19:47.250Z,17.22
2022-10-04T10:23:01.918Z,17.25
2022-10-04T10:25:47.441Z,17.53
2022-10-04T10:28:46.321Z,17.64
2022-10-04T10:31:32.366Z,17.73
2022-10-04T10:34:19.686Z,17.91
2022-10-04T10:36:53.851Z,17.85
2022-10-04T10:39:54.947Z,17.91
2022-10-04T10:42:28.067Z,17.87
2022-10-04T10:45:17.153Z,17.94
2022-10-04T10:48:11.164Z,18.09
2022-10-04T10:51:03.451Z,18.24
2022-10-04T10:53:52.745Z,18.34
2022-10-04T10:56:50.748Z,18.08
2022-10-04T10:59:58.094Z,18.00
2022-10-04T11:02:49.533Z,18.00
2022-10-04T11:05:48.271Z,17.95
2022-10-04T11:08:34.522Z,17.85
2022-10-04T11:11:45.110Z,17.91
2022-10-04T11:14:59.560Z,17.89
2022-10-04T11:17:57.535Z,18.05
2022-10-04T11:21:12.906Z,18.20
2022-10-04T11:24:34.995Z,18.30
2022-10-04T11:27:20.912Z,18.43
2022-10-04T11:30:14.170Z,18.32
2022-10-04T11:32:50.834Z,18.13
2022-10-04T11:35:41.568Z,17.99
2022-10-04T11:38:15.066Z,17.82
2022-10-04T11:41:07.598Z,17.82
2022-10-04T11:43:46.823Z,17.86
2022-10-04T11:46:43.813Z,18.09
2022-10-04T11:49:45.321Z,18.29
2022-10-04T11:52:49.643Z,18.39
2022-10-04T11:55:37.997Z,18.36
2022-10-04T11:58:38.850Z,18.53
2022-10-04T12:01:15.061Z,18.61
2022-10-04T12:04:14.541Z,18.41
2022-10-04T12:07:03.505Z,17.91
2022-10-04T12:09:43.136Z,18.17
2022-10-04T12:12:38.335Z,17.90
2022-10-04T12:15:30.501Z,18.13
2022-10-04T12:18:17.950Z,17.94
2022-10-04T12:20:56.955Z,18.12
2022-10-04T12:23:33.143Z,18.27
2022-10-04T12:26:59.942Z,18.31
2022-10-04T12:29:45.398Z,18.32
2022-10-04T12:32:27.593Z,18.46
2022-10-04T12:35:14.309Z,18.49
2022-10-04T12:37:49.986Z,18.62
2022-10-04T12:40:26.713Z,18.85
2022-10-04T12:43:38.471Z,18.91
2022-10-04T12:46:21.447Z,18.98
2022-10-04T12:49:04.291Z,18.76
2022-10-04T12:51:42.719Z,18.88
2022-10-04T12:54:19.357Z,18.80
2022-10-04T12:56:59.578Z,18.65
2022-10-04T12:59:47.715Z,18.66
2022-10-04T13:02:36.168Z,18.66
2022-10-04T13:05:22.874Z,18.32
2022-10-04T13:08:06.124Z,17.92
2022-10-04T13:11:06.382Z,18.08
2022-10-04T13:13:37.465Z,18.12
2022-10-04T13:19:28.000Z,18.05
2022-10-04T13:22:44.053Z,17.97
2022-10-04T13:25:30.851Z,17.65
2022-10-04T13:28:25.438Z,17.71
2022-10-04T13:31:22.670Z,17.81
2022-10-04T13:34:09.592Z,17.94
2022-10-04T13:37:13.971Z,17.80
2022-10-04T13:39:47.206Z,17.83
2022-10-04T13:42:23.727Z,17.84
2022-10-04T13:45:17.873Z,17.87
2022-10-04T13:47:47.962Z,17.97
2022-10-04T13:50:15.189Z,18.04
2022-10-04T13:53:26.837Z,18.07
2022-10-04T13:56:40.743Z,18.06
2022-10-04T13:59:16.798Z,17.95
2022-10-04T14:02:03.210Z,17.96
2022-10-04T14:04:51.976Z,17.91
2022-10-04T14:07:30.894Z,17.92
2022-10-04T14:10:10.514Z,17.79
2022-10-04T14:12:50.609Z,17.80
2022-10-04T14:15:36.749Z,17.79
2022-10-04T14:18:45.566Z,17.74
2022-10-04T14:21:37.940Z,17.64
2022-10-04T14:24:24.283Z,17.66
2022-10-04T14:27:21.451Z,17.65
2022-10-04T14:30:01.609Z,17.73
2022-10-04T14:32:46.230Z,17.89
2022-10-04T14:35:26.496Z,17.80
2022-10-04T14:38:09.047Z,18.06
2022-10-04T14:40:57.907Z,17.99
2022-10-04T14:43:38.119Z,17.95
2022-10-04T14:46:11.806Z,17.87
2022-10-04T14:48:58.306Z,17.94
2022-10-04T14:51:32.353Z,17.80
2022-10-04T14:54:18.480Z,17.66
2022-10-04T14:57:01.861Z,17.61
2022-10-04T14:59:55.515Z,17.52
2022-10-04T15:02:52.750Z,17.30
2022-10-04T15:05:31.191Z,17.19
2022-10-04T15:08:26.511Z,17.18
2022-10-04T15:10:58.009Z,17.16
2022-10-04T15:13:35.445Z,16.95
2022-10-04T15:16:14.461Z,16.91
2022-10-04T15:18:41.886Z,16.89
2022-10-04T15:21:32.540Z,16.80
2022-10-04T15:24:24.222Z,16.72
2022-10-04T15:27:17.067Z,16.62
2022-10-04T15:30:10.469Z,16.72
2022-10-04T15:32:42.709Z,16.72
2022-10-04T15:35:25.348Z,16.71
2022-10-04T15:38:29.610Z,16.65
2022-10-04T15:41:03.136Z,16.67
2022-10-04T15:43:44.096Z,16.63
2022-10-04T15:46:39.316Z,16.59
2022-10-04T15:49:32.162Z,16.60
2022-10-04T15:52:27.909Z,16.58
2022-10-04T15:55:31.157Z,16.57
2022-10-04T15:58:25.509Z,16.53
2022-10-04T16:01:02.678Z,16.49
2022-10-04T16:03:48.606Z,16.37
2022-10-04T16:06:27.977Z,16.34
2022-10-04T16:09:14.300Z,16.25
2022-10-04T16:12:20.212Z,16.19
2022-10-04T16:15:14.431Z,16.17
2022-10-04T16:18:09.618Z,16.09
2022-10-04T16:20:39.650Z,16.06
2022-10-04T16:23:25.871Z,16.00
2022-10-04T16:25:56.538Z,15.91
2022-10-04T16:28:35.552Z,15.88
2022-10-04T16:31:44.300Z,15.76
2022-10-04T16:34:42.421Z,15.63
2022-10-04T16:37:15.422Z,15.56
2022-10-04T16:40:00.829Z,15.48
2022-10-04T16:43:03.915Z,15.41
2022-10-04T16:46:10.109Z,15.28
2022-10-04T16:48:49.099Z,15.13
2022-10-04T16:51:16.774Z,15.07
2022-10-04T16:54:05.255Z,14.99
2022-10-04T16:57:00.634Z,14.81
2022-10-04T16:59:37.129Z,14.72
2022-10-04T17:02:25.860Z,14.66
2022-10-04T17:05:02.318Z,14.57
2022-10-04T17:07:36.751Z,14.48
2022-10-04T17:10:38.354Z,14.35
2022-10-04T17:13:36.552Z,14.32
2022-10-04T17:16:14.171Z,14.29
2022-10-04T17:19:03.572Z,14.17
2022-10-04T17:21:46.260Z,14.14
2022-10-04T17:24:31.961Z,14.09
2022-10-04T17:27:34.243Z,14.05
2022-10-04T17:30:16.670Z,13.98
2022-10-04T17:33:16.246Z,13.96
2022-10-04T17:35:52.360Z,13.97
2022-10-04T17:38:35.301Z,13.95
2022-10-04T17:41:35.708Z,13.84
2022-10-04T17:44:19.113Z,13.72
2022-10-04T17:46:55.751Z,13.70
2022-10-04T17:49:47.841Z,13.67
2022-10-04T17:52:48.127Z,13.62
2022-10-04T17:55:24.232Z,13.51
2022-10-04T17:58:17.740Z,13.44
2022-10-04T18:00:52.403Z,13.42
2022-10-04T18:03:24.962Z,13.41
2022-10-04T18:05:57.120Z,13.42
2022-10-04T18:08:39.590Z,13.50
2022-10-04T18:11:15.345Z,13.58
2022-10-04T18:14:00.999Z,13.60
2022-10-04T18:16:59.228Z,13.62
2022-10-04T18:19:51.202Z,13.58
2022-10-04T18:22:20.705Z,13.38
2022-10-04T18:25:02.107Z,13.58
2022-10-04T18:27:31.256Z,13.60
2022-10-04T18:30:14.306Z,13.57
2022-10-04T18:32:50.181Z,13.50
2022-10-04T18:35:28.358Z,13.48
2022-10-04T18:38:28.409Z,13.42
2022-10-04T18:41:19.396Z,13.34
2022-10-04T18:44:06.836Z,13.30
2022-10-04T18:46:41.853Z,13.31
2022-10-04T18:49:21.182Z,13.31
2022-10-04T18:51:51.167Z,13.33
2022-10-04T18:54:46.534Z,13.31
2022-10-04T19:01:17.784Z,13.36
2022-10-04T19:03:45.116Z,13.40
2022-10-04T19:06:24.876Z,13.39
2022-10-04T19:09:17.134Z,13.40
2022-10-04T19:12:05.016Z,13.36
2022-10-04T19:14:38.138Z,13.35
2022-10-04T19:17:24.293Z,13.36
2022-10-04T19:20:03.360Z,13.30
2022-10-04T19:23:13.481Z,13.31
2022-10-04T19:26:09.991Z,13.24
2022-10-04T19:28:36.105Z,13.21
2022-10-04T19:31:28.078Z,13.22
2022-10-04T19:34:09.155Z,13.13
2022-10-04T19:36:56.921Z,13.18
2022-10-04T19:39:51.800Z,13.15
2022-10-04T19:42:47.475Z,13.08
2022-10-04T19:45:33.669Z,13.00
2022-10-04T19:48:07.156Z,12.90
2022-10-04T19:50:45.179Z,12.90
2022-10-04T19:53:18.490Z,12.91
2022-10-04T19:55:56.046Z,12.92
2022-10-04T19:58:36.834Z,12.86
2022-10-04T20:01:11.659Z,12.79
2022-10-04T20:03:39.760Z,12.78
2022-10-04T20:06:07.524Z,12.83
2022-10-04T20:09:02.237Z,12.83
2022-10-04T20:11:52.060Z,12.72
2022-10-04T20:14:23.422Z,12.83
2022-10-04T20:17:02.729Z,12.83
2022-10-04T20:19:30.243Z,12.87
2022-10-04T20:22:30.540Z,12.86
2022-10-04T20:24:59.409Z,12.89
2022-10-04T20:27:30.485Z,12.94
2022-10-04T20:30:04.060Z,12.89
2022-10-04T20:32:34.243Z,12.96
2022-10-04T20:35:06.167Z,12.95
2022-10-04T20:37:45.482Z,12.95
2022-10-04T20:40:24.778Z,12.95
2022-10-04T20:43:13.411Z,12.91
2022-10-04T20:45:55.183Z,12.89
2022-10-04T20:48:31.474Z,12.84
2022-10-04T20:51:08.969Z,12.88
2022-10-04T20:53:42.783Z,12.88
2022-10-04T20:56:26.828Z,12.90
2022-10-04T20:59:02.147Z,12.86
2022-10-04T21:01:36.886Z,12.89
2022-10-04T21:04:29.827Z,12.95
2022-10-04T21:06:59.488Z,12.91
2022-10-04T21:09:28.061Z,12.97
2022-10-04T21:11:56.344Z,13.03
2022-10-04T21:14:28.961Z,13.01
2022-10-04T21:17:02.345Z,12.95
2022-10-04T21:19:32.902Z,13.00
2022-10-04T21:22:08.406Z,13.01
2022-10-04T21:24:50.682Z,12.97
2022-10-04T21:27:30.035Z,12.98
2022-10-04T21:29:58.673Z,12.94
2022-10-04T21:32:27.130Z,12.93
2022-10-04T21:34:54.831Z,12.94
2022-10-04T21:37:23.004Z,12.91
2022-10-04T21:39:50.227Z,12.95
2022-10-04T21:42:17.795Z,12.86
2022-10-04T21:44:45.010Z,12.83
2022-10-04T21:47:12.432Z,12.84
2022-10-04T21:49:39.956Z,12.81
2022-10-04T21:52:08.156Z,12.72
2022-10-04T21:54:35.546Z,12.77
2022-10-04T21:57:02.853Z,12.64
2022-10-04T21:59:30.139Z,12.59
2022-10-04T22:01:57.495Z,12.52
2022-10-04T22:04:24.996Z,12.52
2022-10-04T22:06:52.127Z,12.47
2022-10-04T22:09:19.585Z,12.44
2022-10-04T22:11:46.657Z,12.43
2022-10-04T22:14:13.922Z,12.37
2022-10-04T22:16:41.138Z,12.35
2022-10-04T22:19:09.009Z,12.37
2022-10-04T22:21:36.516Z,12.39
2022-10-04T22:24:04.644Z,12.24
2022-10-04T22:26:32.496Z,12.39
2022-10-04T22:28:59.534Z,12.35
2022-10-04T22:31:28.680Z,12.35
2022-10-04T22:33:56.553Z,12.37
2022-10-04T22:36:38.350Z,12.43
2022-10-04T22:39:08.383Z,12.44
2022-10-04T22:41:40.722Z,12.38
2022-10-04T22:44:20.343Z,12.26
2022-10-04T22:46:59.542Z,12.27
2022-10-04T22:49:30.640Z,12.22
2022-10-04T22:51:59.722Z,12.22
2022-10-04T22:54:32.498Z,12.21
2022-10-04T22:57:00.310Z,12.30
2022-10-04T22:59:35.346Z,12.33
2022-10-04T23:02:10.835Z,12.24
2022-10-04T23:04:45.067Z,12.29
2022-10-04T23:07:12.357Z,12.27
2022-10-04T23:09:39.495Z,12.22
2022-10-04T23:12:08.737Z,12.19
2022-10-04T23:14:40.415Z,12.28
2022-10-04T23:17:22.372Z,12.26
2022-10-04T23:19:52.418Z,12.31
2022-10-04T23:22:26.142Z,12.29
2022-10-04T23:24:54.225Z,12.31
2022-10-04T23:27:21.841Z,12.41
2022-10-04T23:29:58.996Z,12.40
2022-10-04T23:32:27.057Z,12.21
2022-10-04T23:34:56.963Z,12.40
2022-10-04T23:37:31.574Z,12.38
2022-10-04T23:39:59.314Z,12.31
2022-10-04T23:42:31.790Z,12.33
2022-10-04T23:45:00.330Z,12.39
2022-10-04T23:47:36.199Z,12.37
2022-10-04T23:50:20.256Z,12.27
2022-10-04T23:52:48.330Z,12.29
2022-10-04T23:55:22.346Z,12.32
2022-10-04T23:57:50.932Z,12.38
